Time;durP1;ratioP1;P1;durP2;ratioP2;P2;SDS_P1;SDS_P2;PMS_P1;PMS_P2;Temp;Humidity;BMP_temperature;BMP_pressure;BME280_temperature;BME280_humidity;BME280_pressure;Samples;Min_cycle;Max_cycle;Signal;HPM_P1;HPM_P2
2022/01/16 00:05:01;;;;;;;32.50;23.33;;;;;;;3.78;85.69;102125.72;5038979;28;20435;-46
2022/01/16 00:07:29;;;;;;;48.83;26.90;;;;;;;3.75;86.06;102131.25;5051183;28;20429;-48
2022/01/16 00:09:56;;;;;;;33.73;25.30;;;;;;;3.77;85.51;102146.94;5051137;28;20458;-45
2022/01/16 00:12:25;;;;;;;42.50;25.53;;;;;;;3.77;85.39;102137.22;5051192;28;20427;-46
2022/01/16 00:14:53;;;;;;;39.93;25.20;;;;;;;3.81;85.26;102133.41;5051447;28;20446;-46
2022/01/16 00:17:23;;;;;;;29.83;22.87;;;;;;;3.79;85.59;102118.66;5051453;28;20450;-44
2022/01/16 00:19:51;;;;;;;43.27;24.17;;;;;;;3.81;85.39;102111.44;5037931;28;20459;-45
2022/01/16 00:22:23;;;;;;;46.37;26.07;;;;;;;3.81;85.59;102114.09;5050891;28;20431;-44
2022/01/16 00:24:51;;;;;;;41.03;26.07;;;;;;;3.78;85.76;102114.31;5051322;28;20439;-44
2022/01/16 00:27:18;;;;;;;35.43;24.93;;;;;;;3.77;85.89;102129.31;5051088;28;20475;-44
2022/01/16 00:29:47;;;;;;;41.73;26.40;;;;;;;3.73;86.08;102119.13;5050606;28;21147;-47
2022/01/16 00:32:15;;;;;;;39.70;25.07;;;;;;;3.74;85.74;102111.09;5050785;28;20786;-45
2022/01/16 00:34:42;;;;;;;35.60;25.53;;;;;;;3.74;85.88;102116.38;5051059;28;20431;-45
2022/01/16 00:37:12;;;;;;;37.20;26.30;;;;;;;3.74;86.20;102126.91;5050275;28;20427;-47
2022/01/16 00:39:39;;;;;;;39.47;26.37;;;;;;;3.67;86.28;102120.44;5050581;28;20452;-45
2022/01/16 00:42:07;;;;;;;39.80;25.63;;;;;;;3.67;86.31;102122.25;5050804;28;20435;-44
2022/01/16 00:44:35;;;;;;;49.27;28.93;;;;;;;3.64;85.56;102120.69;5050951;28;20529;-44
2022/01/16 00:47:04;;;;;;;40.33;26.53;;;;;;;3.64;84.78;102106.66;5050958;28;21191;-46
2022/01/16 00:49:34;;;;;;;47.60;27.77;;;;;;;3.63;85.26;102100.53;5050450;28;20459;-45
2022/01/16 00:52:01;;;;;;;46.50;28.83;;;;;;;3.66;85.30;102097.66;5051646;28;20956;-46
2022/01/16 00:54:29;;;;;;;51.63;29.43;;;;;;;3.64;84.98;102091.66;5052098;28;20546;-45
2022/01/16 00:56:57;;;;;;;40.50;27.60;;;;;;;3.66;84.90;102080.97;5055131;28;20528;-44
2022/01/16 00:59:24;;;;;;;44.23;26.67;;;;;;;3.67;85.27;102075.59;5054805;28;20455;-45
2022/01/16 01:01:52;;;;;;;46.33;29.57;;;;;;;3.69;85.20;102067.56;5054080;28;20833;-45
2022/01/16 01:04:21;;;;;;;47.60;28.93;;;;;;;3.71;85.30;102066.47;5055063;28;20435;-45
2022/01/16 01:06:50;;;;;;;36.60;25.87;;;;;;;3.74;85.69;102052.19;5054446;28;21204;-44
2022/01/16 01:09:19;;;;;;;46.07;28.27;;;;;;;3.78;85.89;102051.84;5054502;28;20451;-45
2022/01/16 01:11:49;;;;;;;47.70;30.03;;;;;;;3.78;86.35;102051.84;5053982;28;20463;-45
2022/01/16 01:14:24;;;;;;;42.53;28.70;;;;;;;3.78;87.33;102056.28;5054500;28;20430;-46
2022/01/16 01:16:54;;;;;;;37.60;27.53;;;;;;;3.77;86.94;102068.63;5052236;28;20441;-45
2022/01/16 01:19:29;;;;;;;49.20;30.97;;;;;;;3.78;87.46;102058.91;5054184;28;20447;-46
2022/01/16 01:21:57;;;;;;;50.20;31.07;;;;;;;3.77;87.49;102055.44;5054058;28;20446;-44
2022/01/16 01:24:25;;;;;;;56.80;33.77;;;;;;;3.75;87.63;102033.63;5048222;28;20435;-44
2022/01/16 01:26:59;;;;;;;49.33;31.20;;;;;;;3.77;87.50;102052.81;5054361;28;20471;-46
2022/01/16 01:29:29;;;;;;;49.97;30.50;;;;;;;3.78;87.70;102043.94;5054450;28;20454;-44
2022/01/16 01:31:56;;;;;;;46.07;30.30;;;;;;;3.78;88.44;102043.94;5053673;28;20534;-46
2022/01/16 01:34:25;;;;;;;46.80;31.03;;;;;;;3.78;88.88;102059.78;5054436;28;20798;-45
2022/01/16 01:36:53;;;;;;;48.93;32.17;;;;;;;3.78;88.64;102062.41;5053989;28;20442;-45
2022/01/16 01:39:22;;;;;;;48.87;32.57;;;;;;;3.75;88.90;102057.38;5054102;28;20820;-45
2022/01/16 01:42:01;;;;;;;50.50;29.43;;;;;;;3.78;88.79;102056.28;5053284;28;21006;-44
2022/01/16 01:52:48;;;;;;;56.17;33.57;;;;;;;3.69;88.52;102042.03;5020243;28;20442;-46
2022/01/16 01:55:16;;;;;;;52.30;33.30;;;;;;;3.69;88.29;102005.09;5053576;28;20439;-44
2022/01/16 01:57:44;;;;;;;52.67;31.03;;;;;;;3.70;88.45;101969.81;5053680;28;20809;-46
2022/01/16 02:00:17;;;;;;;54.60;33.53;;;;;;;3.69;87.77;101968.16;5052921;28;20460;-45
2022/01/16 02:02:58;;;;;;;52.80;34.13;;;;;;;3.69;87.64;101954.97;5053767;28;20424;-45
2022/01/16 02:05:27;;;;;;;59.87;35.00;;;;;;;3.68;87.23;101963.84;5052872;28;20974;-45
2022/01/16 02:07:55;;;;;;;51.13;33.50;;;;;;;3.69;87.34;101946.22;5051864;28;20475;-45
2022/01/16 02:10:23;;;;;;;57.93;35.10;;;;;;;3.72;87.00;101974.97;5052834;28;20841;-45
2022/01/16 02:12:58;;;;;;;66.17;37.70;;;;;;;3.67;87.23;101975.38;5053128;28;20431;-45
2022/01/16 02:15:40;;;;;;;57.10;36.93;;;;;;;3.69;86.35;101968.16;5053693;28;20458;-46
2022/01/16 02:29:53;;;;;;;78.33;43.00;;;;;;;3.71;85.23;101962.75;5052988;28;20455;-44
2022/01/16 02:35:02;;;;;;;86.47;43.77;;;;;;;3.71;85.64;101933.72;5053135;28;20440;-45
2022/01/16 02:37:29;;;;;;;80.40;45.30;;;;;;;3.71;85.51;101945.13;5052839;28;20457;-45
2022/01/16 02:40:05;;;;;;;81.23;41.97;;;;;;;3.67;85.14;101941.06;5052550;28;20982;-44
2022/01/16 02:42:37;;;;;;;92.80;46.40;;;;;;;3.68;83.92;101945.38;5052899;28;20427;-44
2022/01/16 02:45:07;;;;;;;89.60;44.00;;;;;;;3.67;83.68;101948.97;5050433;28;20814;-46
2022/01/16 02:47:35;;;;;;;91.93;45.20;;;;;;;3.68;82.87;101955.06;5052742;28;20478;-45
2022/01/16 02:50:22;;;;;;;87.20;43.40;;;;;;;3.69;82.46;101944.41;5040685;28;20467;-45
2022/01/16 02:52:50;;;;;;;92.47;48.63;;;;;;;3.68;81.65;101940.09;5052835;28;20438;-46
2022/01/16 02:55:21;;;;;;;103.50;45.70;;;;;;;3.71;81.44;101925.81;5052445;28;20439;-44
2022/01/16 02:57:50;;;;;;;100.13;46.87;;;;;;;3.71;81.02;101936.34;5052602;28;20451;-44
2022/01/16 03:00:19;;;;;;;129.33;50.50;;;;;;;3.67;81.17;101943.72;5036710;28;20456;-44
2022/01/16 03:02:47;;;;;;;121.37;50.47;;;;;;;3.63;80.05;101934.34;5052242;28;20927;-46
2022/01/16 03:05:15;;;;;;;105.30;48.47;;;;;;;3.66;79.02;101938.53;5052531;28;20447;-45
2022/01/16 03:07:43;;;;;;;106.20;52.80;;;;;;;3.66;78.27;101931.47;5052294;28;20477;-46
2022/01/16 03:12:59;;;;;;;118.63;51.83;;;;;;;3.62;75.25;101935.31;5041478;28;20420;-45
2022/01/16 03:15:27;;;;;;;114.07;51.40;;;;;;;3.63;74.47;101939.63;5052212;28;20446;-45
2022/01/16 03:23:26;;;;;;;105.33;46.30;;;;;;;3.59;72.25;101916.25;5052046;28;20423;-44
2022/01/16 03:25:54;;;;;;;84.70;42.00;;;;;;;3.63;71.67;101917.69;5051981;28;20972;-44
2022/01/16 03:28:25;;;;;;;94.17;43.70;;;;;;;3.61;70.95;101916.97;5051880;28;20479;-44
2022/01/16 03:30:54;;;;;;;106.90;43.93;;;;;;;3.59;70.57;101900.41;5051460;28;20459;-45
2022/01/16 03:33:22;;;;;;;84.83;40.70;;;;;;;3.59;68.95;101911.81;5051939;28;20435;-46
2022/01/16 03:35:51;;;;;;;96.67;45.00;;;;;;;3.58;68.32;101910.16;5051879;28;20432;-44
2022/01/16 03:38:19;;;;;;;102.73;43.77;;;;;;;3.59;68.15;101917.09;5051687;28;20447;-46
2022/01/16 03:40:47;;;;;;;105.77;46.63;;;;;;;3.61;68.06;101912.53;5051058;28;20486;-44
2022/01/16 03:43:14;;;;;;;75.33;40.60;;;;;;;3.65;67.74;101911.31;5049455;28;20432;-45
2022/01/16 03:45:46;;;;;;;81.13;39.57;;;;;;;3.65;68.76;101905.19;5051397;28;20431;-45
2022/01/16 03:48:15;;;;;;;71.40;41.90;;;;;;;3.64;69.18;101885.06;5051483;28;20485;-45
2022/01/16 03:50:43;;;;;;;71.97;39.47;;;;;;;3.63;70.30;101876.31;5050121;28;21012;-45
2022/01/16 03:53:10;;;;;;;76.83;39.20;;;;;;;3.60;70.82;101878.38;5051734;28;20439;-44
2022/01/16 03:55:38;;;;;;;62.03;39.13;;;;;;;3.60;71.85;101873.94;5051710;28;20803;-44
2022/01/16 03:58:06;;;;;;;55.77;36.40;;;;;;;3.60;72.24;101873.94;5051725;28;20987;-44
2022/01/16 04:00:34;;;;;;;65.77;38.77;;;;;;;3.61;73.22;101867.69;5050609;28;20459;-45
2022/01/16 04:03:03;;;;;;;63.03;39.13;;;;;;;3.60;74.32;101870.44;5051664;28;20494;-45
2022/01/16 04:05:31;;;;;;;58.63;37.27;;;;;;;3.60;75.56;101852.00;5051614;28;20505;-46
2022/01/16 04:07:59;;;;;;;60.70;36.17;;;;;;;3.58;76.86;101849.50;5050054;28;20476;-45
2022/01/16 04:10:27;;;;;;;54.47;35.63;;;;;;;3.59;77.62;101848.50;5050239;28;20464;-45
2022/01/16 04:12:55;;;;;;;59.20;35.27;;;;;;;3.55;78.79;101833.91;5051420;28;20431;-46
2022/01/16 04:15:35;;;;;;;62.57;34.80;;;;;;;3.54;78.99;101837.50;5051306;28;20957;-45
2022/01/16 04:18:06;;;;;;;56.77;33.10;;;;;;;3.59;79.07;101840.59;5050949;28;20845;-48
2022/01/16 04:20:35;;;;;;;60.50;33.17;;;;;;;3.61;80.04;101848.41;5050778;28;20455;-47
2022/01/16 04:23:03;;;;;;;54.43;32.23;;;;;;;3.61;80.90;101841.31;5046861;28;20423;-47
2022/01/16 04:25:31;;;;;;;54.47;33.97;;;;;;;3.64;80.69;101835.81;5051313;28;20440;-45
2022/01/16 04:27:58;;;;;;;51.53;32.30;;;;;;;3.66;81.88;101836.50;5053798;28;20486;-46
2022/01/16 04:30:26;;;;;;;50.67;33.47;;;;;;;3.67;82.79;101838.19;5054636;28;20455;-45
2022/01/16 04:32:54;;;;;;;45.80;31.57;;;;;;;3.70;82.91;101832.63;5055339;28;20798;-44
2022/01/16 04:35:23;;;;;;;54.17;33.90;;;;;;;3.70;84.46;101839.75;5055291;28;21270;-46
2022/01/16 04:37:51;;;;;;;53.90;32.67;;;;;;;3.72;84.37;101843.91;5055473;28;20447;-45
2022/01/16 04:40:40;;;;;;;47.97;31.50;;;;;;;3.74;85.27;101834.06;5052521;28;20520;-46
2022/01/16 04:45:56;;;;;;;57.40;32.90;;;;;;;3.75;87.11;101827.00;5055370;28;20442;-45
2022/01/16 04:48:24;;;;;;;41.70;28.93;;;;;;;3.77;87.69;101827.69;5054887;28;20479;-45
2022/01/16 04:50:53;;;;;;;47.23;32.00;;;;;;;3.75;88.32;101825.19;5054259;28;20462;-44
2022/01/16 04:53:20;;;;;;;48.67;30.30;;;;;;;3.75;88.35;101827.00;5054119;28;20438;-44
2022/01/16 04:55:49;;;;;;;52.53;30.43;;;;;;;3.76;89.51;101818.94;5055029;28;20954;-46
2022/01/16 04:58:18;;;;;;;45.37;30.17;;;;;;;3.74;89.87;101812.97;5054854;28;20447;-45
2022/01/16 05:00:49;;;;;;;44.00;28.90;;;;;;;3.73;90.32;101821.81;5054030;28;20463;-47
2022/01/16 05:03:17;;;;;;;45.67;29.87;;;;;;;3.79;90.34;101809.97;5054711;28;20518;-45
2022/01/16 05:05:45;;;;;;;55.80;33.80;;;;;;;3.78;90.87;101819.66;5054544;28;20435;-44
2022/01/16 05:08:14;;;;;;;48.27;31.23;;;;;;;3.75;91.68;101813.81;5054028;28;20478;-45
2022/01/16 05:10:42;;;;;;;44.70;30.43;;;;;;;3.80;91.25;101803.69;5051021;28;20474;-45
2022/01/16 05:13:28;;;;;;;43.27;30.37;;;;;;;3.76;92.15;101805.75;5052342;28;20839;-45
2022/01/16 05:18:56;;;;;;;48.83;31.10;;;;;;;3.77;92.29;101793.41;4991282;28;20532;-47
2022/01/16 05:21:24;;;;;;;50.27;31.20;;;;;;;3.78;92.36;101792.44;4990663;28;20462;-47
2022/01/16 05:23:53;;;;;;;46.30;29.50;;;;;;;3.77;92.17;101778.41;5015782;28;20442;-45
2022/01/16 05:26:26;;;;;;;50.93;31.87;;;;;;;3.76;92.52;101786.47;5043717;28;20446;-45
2022/01/16 05:28:54;;;;;;;46.30;28.83;;;;;;;3.76;92.35;101784.63;5052856;28;20482;-45
2022/01/16 05:31:23;;;;;;;51.83;32.27;;;;;;;3.77;92.41;101774.94;5052308;28;21049;-45
2022/01/16 05:33:51;;;;;;;50.00;30.40;;;;;;;3.72;92.56;101785.03;5053141;28;20431;-47
2022/01/16 05:36:20;;;;;;;52.40;29.13;;;;;;;3.71;92.41;101776.28;5048993;28;20435;-45
2022/01/16 05:38:48;;;;;;;45.87;27.37;;;;;;;3.67;92.80;101769.59;5051426;28;20448;-46
2022/01/16 05:41:18;;;;;;;48.00;28.97;;;;;;;3.65;93.01;101776.78;5051748;28;20467;-45
2022/01/16 05:43:46;;;;;;;46.70;28.70;;;;;;;3.66;93.15;101775.84;5053069;28;20519;-44
2022/01/16 05:46:14;;;;;;;44.27;28.93;;;;;;;3.73;93.14;101768.25;5052170;28;20493;-46
2022/01/16 05:48:43;;;;;;;43.03;27.93;;;;;;;3.75;93.53;101764.53;5052528;28;21297;-44
2022/01/16 05:51:10;;;;;;;40.37;28.47;;;;;;;3.71;93.43;101757.81;5044236;28;21031;-44
2022/01/16 05:53:38;;;;;;;47.30;28.57;;;;;;;3.72;93.84;101750.75;5052623;28;20432;-44
2022/01/16 05:56:06;;;;;;;45.47;29.50;;;;;;;3.72;93.54;101756.03;5051683;28;20442;-45
2022/01/16 05:58:35;;;;;;;48.90;29.97;;;;;;;3.67;93.77;101745.88;5052572;28;20479;-45
2022/01/16 06:01:03;;;;;;;52.17;29.33;;;;;;;3.69;93.47;101736.00;5051616;28;20463;-45
2022/01/16 06:03:30;;;;;;;45.60;28.40;;;;;;;3.66;93.37;101735.44;5052532;28;20440;-45
2022/01/16 06:05:58;;;;;;;43.93;28.10;;;;;;;3.61;93.50;101732.34;5051528;28;20821;-45
2022/01/16 06:08:26;;;;;;;44.90;28.80;;;;;;;3.65;93.13;101734.59;5052366;28;20462;-45
2022/01/16 06:10:54;;;;;;;42.73;30.10;;;;;;;3.64;93.15;101732.94;5051030;28;20474;-45
2022/01/16 06:13:21;;;;;;;49.90;28.90;;;;;;;3.64;93.47;101732.09;5052011;28;20435;-47
2022/01/16 06:15:50;;;;;;;50.23;30.00;;;;;;;3.62;93.41;101719.00;5052161;28;20450;-46
2022/01/16 06:18:18;;;;;;;51.10;30.83;;;;;;;3.60;93.54;101709.56;5051844;28;20571;-46
2022/01/16 06:20:47;;;;;;;59.60;32.10;;;;;;;3.61;93.25;101700.69;5050963;28;20469;-44
2022/01/16 06:23:16;;;;;;;59.50;32.67;;;;;;;3.59;93.67;101698.16;5052149;28;20461;-45
2022/01/16 06:25:44;;;;;;;54.90;31.00;;;;;;;3.58;93.79;101690.41;5050900;28;20443;-46
2022/01/16 06:28:12;;;;;;;61.30;33.07;;;;;;;3.55;94.25;101703.84;5051802;28;20451;-45
2022/01/16 06:30:40;;;;;;;64.93;33.50;;;;;;;3.52;93.71;101697.03;5048637;28;20474;-45
2022/01/16 06:33:09;;;;;;;65.27;35.80;;;;;;;3.53;93.67;101701.31;5051731;28;20439;-47
2022/01/16 06:35:37;;;;;;;68.33;34.90;;;;;;;3.52;93.55;101694.41;5051220;28;20466;-45
2022/01/16 06:38:05;;;;;;;68.10;36.33;;;;;;;3.53;93.35;101697.84;5050232;28;20451;-45
2022/01/16 06:40:33;;;;;;;56.63;32.67;;;;;;;3.52;93.11;101710.22;5050619;28;20460;-45
2022/01/16 06:43:01;;;;;;;67.37;36.77;;;;;;;3.47;92.97;101703.63;5051015;28;21247;-46
2022/01/16 06:45:29;;;;;;;76.47;37.00;;;;;;;3.42;91.95;101690.84;5049993;28;20436;-44
2022/01/16 06:47:56;;;;;;;86.57;38.60;;;;;;;3.40;91.04;101699.84;5051629;28;20459;-46
2022/01/16 06:50:25;;;;;;;78.03;37.17;;;;;;;3.40;90.16;101705.97;5039840;28;20474;-45
2022/01/16 06:52:53;;;;;;;71.90;37.67;;;;;;;3.36;89.66;101707.16;5051422;28;20443;-48
2022/01/16 06:55:21;;;;;;;73.10;35.97;;;;;;;3.33;88.15;101710.06;5050958;28;20517;-47
2022/01/16 06:57:48;;;;;;;77.10;37.47;;;;;;;3.28;86.58;101726.25;5048717;28;20460;-47
2022/01/16 07:00:16;;;;;;;72.13;35.83;;;;;;;3.22;84.84;101725.91;5050505;28;20459;-46
2022/01/16 07:02:44;;;;;;;73.10;36.47;;;;;;;3.17;84.01;101733.34;5051516;28;20436;-48
2022/01/16 07:05:12;;;;;;;69.23;35.70;;;;;;;3.16;82.76;101729.06;5050433;28;20810;-45
2022/01/16 07:07:41;;;;;;;73.50;35.30;;;;;;;3.10;82.20;101727.75;5051043;28;20482;-47
2022/01/16 07:10:09;;;;;;;75.57;35.80;;;;;;;3.13;81.18;101730.16;5050411;28;20478;-44
2022/01/16 07:12:37;;;;;;;71.30;34.33;;;;;;;3.10;80.97;101726.91;5050869;28;20438;-47
2022/01/16 07:15:05;;;;;;;71.53;35.03;;;;;;;3.05;79.78;101724.63;5050440;28;20443;-48
2022/01/16 07:17:33;;;;;;;71.73;33.13;;;;;;;3.03;79.24;101723.94;5050935;28;20442;-45
2022/01/16 07:20:00;;;;;;;70.10;34.33;;;;;;;3.02;79.31;101729.31;5050136;28;20457;-44
2022/01/16 07:22:28;;;;;;;74.93;35.10;;;;;;;3.02;78.30;101724.03;5049871;28;20447;-45
2022/01/16 07:24:57;;;;;;;72.70;35.13;;;;;;;3.02;78.02;101730.16;5050447;28;20439;-47
2022/01/16 07:27:25;;;;;;;81.13;35.43;;;;;;;3.02;77.78;101729.31;5050749;28;21113;-45
2022/01/16 07:29:52;;;;;;;92.27;35.70;;;;;;;2.96;76.67;101729.81;5048250;28;20462;-44
2022/01/16 07:32:20;;;;;;;91.97;40.97;;;;;;;2.97;75.28;101726.22;5036092;28;20494;-45
2022/01/16 07:34:52;;;;;;;104.70;39.63;;;;;;;2.98;74.40;101725.28;5050186;28;20432;-46
2022/01/16 07:37:20;;;;;;;101.37;39.13;;;;;;;2.94;74.15;101729.09;5050566;28;20436;-46
2022/01/16 07:39:48;;;;;;;90.57;39.93;;;;;;;2.96;73.32;101732.44;5049879;28;20428;-45
2022/01/16 07:42:17;;;;;;;103.40;40.53;;;;;;;2.88;71.36;101716.41;5050625;28;20427;-48
2022/01/16 07:44:44;;;;;;;115.77;42.20;;;;;;;2.89;69.96;101713.69;5041744;28;20790;-45
2022/01/16 07:47:12;;;;;;;98.93;42.03;;;;;;;2.94;68.74;101719.41;5050139;28;20436;-46
2022/01/16 07:49:40;;;;;;;112.67;41.13;;;;;;;2.90;68.90;101719.78;5049997;28;20479;-46
2022/01/16 07:52:08;;;;;;;93.77;41.90;;;;;;;2.92;68.16;101717.84;5048477;28;20435;-44
2022/01/16 07:54:36;;;;;;;96.13;38.40;;;;;;;2.94;68.32;101729.09;5049717;28;20435;-44
2022/01/16 07:57:04;;;;;;;118.43;40.53;;;;;;;2.94;67.61;101708.03;5049166;28;20494;-49
2022/01/16 07:59:33;;;;;;;103.03;38.90;;;;;;;2.95;67.60;101721.09;5049938;28;20474;-46
2022/01/16 08:02:01;;;;;;;110.10;42.57;;;;;;;2.94;67.42;101714.13;5048972;28;20446;-47
2022/01/16 08:04:28;;;;;;;115.87;38.90;;;;;;;2.98;66.71;101717.38;5049920;28;20436;-44
2022/01/16 08:06:56;;;;;;;102.97;40.70;;;;;;;2.97;66.04;101711.25;5049818;28;20431;-47
2022/01/16 08:09:24;;;;;;;115.67;39.50;;;;;;;2.95;66.14;101717.63;5050242;28;20450;-46
2022/01/16 08:11:57;;;;;;;109.23;40.53;;;;;;;2.97;66.25;101732.34;5049817;28;20448;-45
2022/01/16 08:14:25;;;;;;;120.13;44.20;;;;;;;2.99;66.31;101737.47;5049968;28;20518;-46
2022/01/16 08:16:56;;;;;;;107.07;40.50;;;;;;;3.02;66.34;101731.94;5049606;28;20435;-44
2022/01/16 08:19:24;;;;;;;101.07;38.30;;;;;;;2.99;66.36;101740.09;5049800;28;20483;-46
2022/01/16 08:21:52;;;;;;;102.47;40.60;;;;;;;3.01;66.02;101735.56;5049464;28;20470;-45
2022/01/16 08:24:21;;;;;;;102.43;37.97;;;;;;;3.02;65.94;101739.84;5045298;28;21201;-45
2022/01/16 08:26:49;;;;;;;115.23;42.40;;;;;;;3.06;65.89;101731.59;5050070;28;20447;-47
2022/01/16 08:29:16;;;;;;;110.40;37.50;;;;;;;3.09;66.04;101733.13;5050101;28;20455;-46
2022/01/16 08:31:44;;;;;;;99.57;36.90;;;;;;;3.12;66.51;101736.38;5048603;28;20472;-46
2022/01/16 08:34:13;;;;;;;93.57;40.03;;;;;;;3.14;67.13;101730.97;5049558;28;20443;-46
2022/01/16 08:36:41;;;;;;;103.37;39.67;;;;;;;3.16;67.56;101732.53;5049643;28;20439;-45
2022/01/16 08:39:08;;;;;;;104.77;37.37;;;;;;;3.16;68.51;101727.25;5049717;28;20462;-47
2022/01/16 08:41:37;;;;;;;96.53;38.67;;;;;;;3.19;68.38;101721.75;5049152;28;20463;-44
2022/01/16 08:44:05;;;;;;;111.87;39.60;;;;;;;3.21;69.03;101701.34;5046812;28;20454;-45
2022/01/16 08:46:34;;;;;;;102.10;39.27;;;;;;;3.17;69.78;101706.97;5048532;28;20447;-45
2022/01/16 08:49:01;;;;;;;106.00;41.30;;;;;;;3.22;69.54;101715.38;5049902;28;20451;-45
2022/01/16 08:51:30;;;;;;;103.83;39.97;;;;;;;3.21;70.11;101709.25;5049055;28;21020;-46
2022/01/16 08:53:58;;;;;;;97.53;42.20;;;;;;;3.26;70.00;101700.97;5049743;28;20431;-45
2022/01/16 08:56:25;;;;;;;104.40;42.43;;;;;;;3.22;71.05;101704.84;5049132;28;20443;-45
2022/01/16 08:58:53;;;;;;;94.77;40.67;;;;;;;3.22;70.56;101699.56;5049491;28;20455;-46
2022/01/16 09:01:21;;;;;;;105.63;43.17;;;;;;;3.21;70.71;101697.88;5048352;28;20470;-47
2022/01/16 09:03:53;;;;;;;101.27;42.50;;;;;;;3.19;70.41;101702.44;5049594;28;20467;-44
2022/01/16 09:06:21;;;;;;;100.93;37.57;;;;;;;3.21;70.44;101695.25;5049229;28;20443;-46
2022/01/16 09:08:50;;;;;;;100.07;41.10;;;;;;;3.19;70.85;101705.09;5049519;28;20459;-45
2022/01/16 09:11:22;;;;;;;101.17;39.83;;;;;;;3.17;69.78;101696.44;5046281;28;20482;-49
2022/01/16 09:13:49;;;;;;;87.30;40.37;;;;;;;3.19;68.48;101694.53;5051133;28;20430;-49
2022/01/16 09:16:18;;;;;;;87.30;39.07;;;;;;;3.21;68.39;101695.25;5042287;28;20439;-50
2022/01/16 09:18:47;;;;;;;83.23;40.40;;;;;;;3.19;68.19;101686.63;5053159;28;20508;-47
2022/01/16 09:21:16;;;;;;;85.37;38.33;;;;;;;3.20;68.56;101683.84;5052444;28;20463;-49
2022/01/16 09:23:44;;;;;;;87.00;37.30;;;;;;;3.18;67.85;101680.53;5052948;28;20436;-44
2022/01/16 09:26:13;;;;;;;83.73;37.10;;;;;;;3.20;67.84;101689.13;5051798;28;20439;-45
2022/01/16 09:28:42;;;;;;;93.43;38.00;;;;;;;3.22;67.52;101691.66;5052682;28;20455;-44
2022/01/16 09:31:09;;;;;;;82.23;39.00;;;;;;;3.21;67.49;101698.72;5052416;28;20902;-48
2022/01/16 09:33:37;;;;;;;90.53;41.07;;;;;;;3.25;67.13;101696.66;5052386;28;20431;-48
2022/01/16 09:36:07;;;;;;;82.23;39.40;;;;;;;3.25;66.73;101697.50;5052470;28;20435;-45
2022/01/16 09:38:36;;;;;;;86.23;38.33;;;;;;;3.28;67.27;101697.25;5052510;28;20826;-45
2022/01/16 09:41:08;;;;;;;81.53;37.17;;;;;;;3.32;67.32;101692.53;5052260;28;20459;-45
2022/01/16 09:43:37;;;;;;;86.23;35.63;;;;;;;3.32;67.39;101692.53;5052160;28;20911;-44
2022/01/16 09:46:05;;;;;;;100.10;38.90;;;;;;;3.32;67.71;101698.66;5052316;28;20938;-45
2022/01/16 09:48:33;;;;;;;88.93;39.00;;;;;;;3.31;68.02;101701.44;5052699;28;20458;-45
2022/01/16 09:51:01;;;;;;;74.87;38.30;;;;;;;3.33;67.47;101702.13;5047829;28;20843;-47
2022/01/16 09:53:29;;;;;;;84.77;37.83;;;;;;;3.36;66.73;101707.16;5052507;28;20458;-46
2022/01/16 09:55:57;;;;;;;91.50;39.10;;;;;;;3.40;66.31;101711.22;5052337;28;20444;-47
2022/01/16 09:58:24;;;;;;;66.70;34.30;;;;;;;3.42;66.42;101711.94;5052155;28;20465;-50
2022/01/16 10:00:54;;;;;;;71.20;35.93;;;;;;;3.48;65.97;101715.84;5051570;28;20466;-45
2022/01/16 10:03:39;;;;;;;84.00;37.40;;;;;;;3.50;66.61;101698.09;5052507;28;20920;-44
2022/01/16 10:06:13;;;;;;;85.00;36.20;;;;;;;3.51;67.42;101705.06;5044303;28;20443;-48
2022/01/16 10:08:42;;;;;;;85.87;36.77;;;;;;;3.50;69.02;101708.63;5052468;28;20475;-45
2022/01/16 10:11:27;;;;;;;92.87;39.37;;;;;;;3.53;68.34;101722.41;5039605;28;20483;-45
2022/01/16 10:14:02;;;;;;;99.33;41.80;;;;;;;3.55;67.48;101702.06;5052100;28;20818;-46
2022/01/16 10:16:33;;;;;;;84.40;36.63;;;;;;;3.58;68.41;101701.78;5051963;28;20441;-44
2022/01/16 10:19:01;;;;;;;105.97;42.77;;;;;;;3.57;68.34;101705.38;5052137;28;20461;-46
2022/01/16 10:21:35;;;;;;;101.20;40.53;;;;;;;3.59;68.01;101689.41;5051343;28;20459;-45
2022/01/16 10:24:16;;;;;;;125.83;44.97;;;;;;;3.60;67.42;101689.31;5051944;28;20466;-46
2022/01/16 10:26:44;;;;;;;110.27;43.17;;;;;;;3.61;67.20;101695.41;5051238;28;20466;-46
2022/01/16 10:29:16;;;;;;;116.87;45.10;;;;;;;3.67;66.73;101693.13;5052106;28;20455;-45
2022/01/16 10:31:45;;;;;;;129.07;46.87;;;;;;;3.74;65.95;101688.13;5051266;28;20475;-48
2022/01/16 10:34:31;;;;;;;126.30;46.33;;;;;;;3.75;65.54;101684.53;5051705;28;20441;-46
2022/01/16 10:37:00;;;;;;;122.07;48.80;;;;;;;3.79;65.23;101684.13;5050899;28;20965;-48
2022/01/16 10:39:27;;;;;;;123.90;46.30;;;;;;;3.80;66.17;101683.19;5051933;28;20455;-48
2022/01/16 10:42:15;;;;;;;121.07;48.33;;;;;;;3.84;65.02;101676.69;5050910;28;20436;-46
2022/01/16 10:44:44;;;;;;;134.47;54.10;;;;;;;3.88;64.60;101672.78;5044957;28;20435;-47
2022/01/16 10:47:31;;;;;;;143.10;47.93;;;;;;;3.94;64.25;101670.63;5051429;28;20949;-46
2022/01/16 10:50:08;;;;;;;120.47;50.97;;;;;;;3.99;64.31;101671.06;5051248;28;20466;-47
2022/01/16 10:52:57;;;;;;;126.67;47.00;;;;;;;4.07;63.46;101668.59;5051295;28;20554;-46
2022/01/16 10:55:33;;;;;;;126.53;50.70;;;;;;;4.18;62.47;101669.31;5050473;28;20441;-45
2022/01/16 10:58:06;;;;;;;112.90;47.90;;;;;;;4.25;63.22;101664.34;5051459;28;20453;-48
2022/01/16 11:00:35;;;;;;;117.93;48.70;;;;;;;4.36;62.89;101651.88;5050620;28;20469;-46
2022/01/16 11:03:07;;;;;;;145.40;51.30;;;;;;;4.44;63.80;101648.59;5051204;28;20439;-44
2022/01/16 11:05:37;;;;;;;115.87;48.27;;;;;;;4.55;65.38;101659.03;5050764;28;20428;-47
2022/01/16 11:08:09;;;;;;;147.27;51.60;;;;;;;4.59;68.89;101663.09;5051030;28;20448;-45
2022/01/16 11:10:38;;;;;;;123.33;52.70;;;;;;;4.60;72.10;101653.34;5049844;28;20469;-45
2022/01/16 11:13:09;;;;;;;122.83;50.80;;;;;;;4.60;73.65;101653.34;5051127;28;20475;-47
2022/01/16 11:15:39;;;;;;;130.27;50.73;;;;;;;4.60;73.54;101646.25;5050606;28;20424;-45
2022/01/16 11:18:10;;;;;;;122.90;51.47;;;;;;;4.63;74.10;101648.63;5050865;28;20459;-47
2022/01/16 11:20:39;;;;;;;129.10;55.30;;;;;;;4.65;74.01;101646.69;5050109;28;20823;-46
2022/01/16 11:23:15;;;;;;;119.87;53.10;;;;;;;4.70;73.58;101647.13;5050941;28;20438;-46
2022/01/16 11:25:45;;;;;;;128.60;52.83;;;;;;;4.76;74.29;101653.66;5048349;28;20453;-46
2022/01/16 11:28:15;;;;;;;126.30;54.70;;;;;;;4.78;73.10;101651.72;5050975;28;20458;-47
2022/01/16 11:30:47;;;;;;;122.53;52.87;;;;;;;4.85;73.41;101648.38;5049973;28;20981;-46
2022/01/16 11:33:22;;;;;;;112.03;52.53;;;;;;;4.92;73.80;101660.09;5050546;28;20471;-44
2022/01/16 11:35:54;;;;;;;135.17;52.70;;;;;;;4.93;74.59;101653.81;5050425;28;20437;-45
2022/01/16 11:38:23;;;;;;;122.37;53.73;;;;;;;4.96;75.75;101660.63;5050661;28;20974;-48
2022/01/16 11:40:51;;;;;;;131.73;52.83;;;;;;;4.96;76.52;101658.81;5049364;28;20468;-49
2022/01/16 11:43:24;;;;;;;147.27;51.80;;;;;;;5.01;76.05;101661.91;5050267;28;20432;-48
2022/01/16 11:46:05;;;;;;;122.23;53.53;;;;;;;5.06;74.87;101658.00;5045619;28;20443;-45
2022/01/16 11:48:39;;;;;;;129.57;52.13;;;;;;;5.06;75.41;101664.13;5039864;28;20471;-48
2022/01/16 11:52:04;;;;;;;117.87;51.53;;;;;;;5.12;75.43;101654.78;5049237;28;20459;-46
2022/01/16 11:54:34;;;;;;;109.73;50.17;;;;;;;5.12;75.15;101655.63;5037657;28;20433;-46
2022/01/16 11:57:18;;;;;;;126.03;52.20;;;;;;;5.14;75.09;101651.03;5050035;28;20431;-47
2022/01/16 11:59:47;;;;;;;129.83;52.47;;;;;;;5.13;75.05;101645.91;5041697;28;21231;-46
2022/01/16 12:02:25;;;;;;;107.53;51.30;;;;;;;5.18;73.91;101641.84;5049834;28;20434;-46
2022/01/16 12:05:06;;;;;;;115.63;52.63;;;;;;;5.21;73.19;101633.66;5050110;28;20454;-46
2022/01/16 12:07:49;;;;;;;107.50;51.07;;;;;;;5.23;73.42;101644.06;5050250;28;20432;-48